createdAt,value
2017-12-16T00:01:56.925Z,6.63
2017-12-16T00:04:24.376Z,6.87
2017-12-16T00:06:51.841Z,6.40
2017-12-16T00:09:19.426Z,4.80
2017-12-16T00:11:46.853Z,5.50
2017-12-16T00:14:14.321Z,7.10
2017-12-16T00:16:41.746Z,5.30
2017-12-16T00:19:09.961Z,5.10
2017-12-16T00:21:37.436Z,5.57
2017-12-16T00:24:04.869Z,7.37
2017-12-16T00:26:32.314Z,8.20
2017-12-16T00:29:00.537Z,6.13
2017-12-16T00:31:27.968Z,6.53
2017-12-16T00:33:55.445Z,9.53
2017-12-16T00:36:22.902Z,9.57
2017-12-16T00:38:50.321Z,9.10
2017-12-16T00:41:18.517Z,9.37
2017-12-16T00:43:46.729Z,7.07
2017-12-16T00:46:14.158Z,6.40
2017-12-16T00:48:41.664Z,7.73
2017-12-16T00:51:09.085Z,7.30
2017-12-16T00:53:36.506Z,5.57
2017-12-16T00:56:03.941Z,7.60
2017-12-16T00:58:31.365Z,7.63
2017-12-16T01:00:58.853Z,6.40
2017-12-16T01:03:26.317Z,7.70
2017-12-16T01:05:53.777Z,6.90
2017-12-16T01:08:21.245Z,6.60
2017-12-16T01:10:48.677Z,6.20
2017-12-16T01:13:16.167Z,4.63
2017-12-16T01:15:43.590Z,7.10
2017-12-16T01:18:11.085Z,6.80
2017-12-16T01:20:38.549Z,6.90
2017-12-16T01:23:06.010Z,6.17
2017-12-16T01:25:33.468Z,6.00
2017-12-16T01:28:00.890Z,5.23
2017-12-16T01:30:29.109Z,5.33
2017-12-16T01:32:56.573Z,5.13
2017-12-16T01:35:35.625Z,6.00
2017-12-16T01:38:15.087Z,5.10
2017-12-16T01:40:43.310Z,3.60
2017-12-16T01:43:10.737Z,4.93
2017-12-16T01:45:38.945Z,4.97
2017-12-16T01:48:06.379Z,5.60
2017-12-16T01:50:33.857Z,4.60
2017-12-16T01:53:01.254Z,4.13
2017-12-16T01:55:28.793Z,4.63
2017-12-16T01:57:56.213Z,5.47
2017-12-16T02:00:24.429Z,4.63
2017-12-16T02:02:51.885Z,6.20
2017-12-16T02:05:19.310Z,4.70
2017-12-16T02:07:47.512Z,4.40
2017-12-16T02:10:15.011Z,4.10
2017-12-16T02:12:42.429Z,4.70
2017-12-16T02:15:09.857Z,6.00
2017-12-16T02:17:37.373Z,5.30
2017-12-16T02:20:04.797Z,5.00
2017-12-16T02:22:32.995Z,4.07
2017-12-16T02:25:00.422Z,5.90
2017-12-16T02:27:27.933Z,5.40
2017-12-16T02:29:55.401Z,4.57
2017-12-16T02:32:22.830Z,6.47
2017-12-16T02:34:51.014Z,4.97
2017-12-16T02:37:18.449Z,3.93
2017-12-16T02:39:46.673Z,4.63
2017-12-16T02:42:14.102Z,6.10
2017-12-16T02:44:42.289Z,6.30
2017-12-16T02:47:09.785Z,5.10
2017-12-16T02:49:37.206Z,6.97
2017-12-16T02:52:05.399Z,4.80
2017-12-16T02:54:32.877Z,4.50
2017-12-16T02:57:00.311Z,6.07
2017-12-16T02:59:27.797Z,4.60
2017-12-16T03:01:55.353Z,3.70
2017-12-16T03:04:22.822Z,5.43
2017-12-16T03:06:50.245Z,4.03
2017-12-16T03:09:18.434Z,4.50
2017-12-16T03:11:46.644Z,5.67
2017-12-16T03:14:14.073Z,4.80
2017-12-16T03:16:41.510Z,4.27
2017-12-16T03:19:09.026Z,5.10
2017-12-16T03:21:36.452Z,5.23
2017-12-16T03:24:04.637Z,5.00
2017-12-16T03:26:32.065Z,4.90
2017-12-16T03:29:00.301Z,3.87
2017-12-16T03:31:27.719Z,7.93
2017-12-16T03:33:55.952Z,7.20
2017-12-16T03:36:23.457Z,7.93
2017-12-16T03:38:51.645Z,6.57
2017-12-16T03:41:19.859Z,6.10
2017-12-16T03:43:47.286Z,7.93
2017-12-16T03:46:15.501Z,6.70
2017-12-16T03:48:42.941Z,8.80
2017-12-16T03:51:10.362Z,7.47
2017-12-16T03:53:37.789Z,7.67
2017-12-16T03:56:05.213Z,6.27
2017-12-16T03:58:32.696Z,7.00
2017-12-16T04:01:00.165Z,7.37
2017-12-16T04:03:27.602Z,4.97
2017-12-16T04:05:55.084Z,7.40
2017-12-16T04:08:22.510Z,7.30
2017-12-16T04:10:50.696Z,8.50
2017-12-16T04:13:18.129Z,5.67
2017-12-16T04:15:45.554Z,9.50
2017-12-16T04:18:13.013Z,7.60
2017-12-16T04:20:40.469Z,4.80
2017-12-16T04:23:07.929Z,4.30
2017-12-16T04:25:35.350Z,4.30
2017-12-16T04:28:03.573Z,5.43
2017-12-16T04:30:31.037Z,6.17
2017-12-16T04:32:58.498Z,3.30
2017-12-16T04:35:25.914Z,4.20
2017-12-16T04:37:54.105Z,4.30
2017-12-16T04:40:21.525Z,5.77
2017-12-16T04:42:48.949Z,4.50
2017-12-16T04:45:16.409Z,6.13
2017-12-16T04:47:43.873Z,5.23
2017-12-16T04:50:11.300Z,6.13
2017-12-16T04:52:39.503Z,5.63
2017-12-16T04:55:06.945Z,5.87
2017-12-16T04:57:34.438Z,5.83
2017-12-16T05:00:01.861Z,6.67
2017-12-16T05:02:30.074Z,5.47
2017-12-16T05:04:57.505Z,6.27
2017-12-16T05:07:25.809Z,7.93
2017-12-16T05:09:53.241Z,5.00
2017-12-16T05:12:21.457Z,5.87
2017-12-16T05:14:48.882Z,7.77
2017-12-16T05:17:17.079Z,7.83
2017-12-16T05:19:44.497Z,8.67
2017-12-16T05:22:11.921Z,4.63
2017-12-16T05:24:39.457Z,4.20
2017-12-16T05:27:06.936Z,4.00
2017-12-16T05:29:34.405Z,6.47
2017-12-16T05:32:01.845Z,4.80
2017-12-16T05:34:30.019Z,5.23
2017-12-16T05:36:57.498Z,5.73
2017-12-16T05:39:24.954Z,5.67
2017-12-16T05:41:52.421Z,5.60
2017-12-16T05:44:19.880Z,4.10
2017-12-16T05:46:47.310Z,4.70
2017-12-16T05:49:15.517Z,6.17
2017-12-16T05:51:42.982Z,5.67
2017-12-16T05:54:10.445Z,5.70
2017-12-16T05:56:37.902Z,6.70
2017-12-16T05:59:05.309Z,3.70
2017-12-16T06:01:33.541Z,5.27
2017-12-16T06:04:01.042Z,3.97
2017-12-16T06:06:28.575Z,5.77
2017-12-16T06:08:56.025Z,6.10
2017-12-16T06:11:23.489Z,7.10
2017-12-16T06:13:50.933Z,5.80
2017-12-16T06:16:18.419Z,9.10
2017-12-16T06:18:45.885Z,7.47
2017-12-16T06:21:13.314Z,5.90
2017-12-16T06:23:40.741Z,5.10
2017-12-16T06:26:08.170Z,5.87
2017-12-16T06:28:35.605Z,9.80
2017-12-16T06:31:03.028Z,5.70
2017-12-16T06:33:31.270Z,6.27
2017-12-16T06:35:58.696Z,5.07
2017-12-16T06:38:26.149Z,7.17
2017-12-16T06:40:53.641Z,7.53
2017-12-16T06:43:21.194Z,6.37
2017-12-16T06:45:48.597Z,6.80
2017-12-16T06:48:16.062Z,7.87
2017-12-16T06:50:43.488Z,7.40
2017-12-16T06:53:10.954Z,7.30
2017-12-16T06:55:38.379Z,7.97
2017-12-16T06:58:05.822Z,6.03
2017-12-16T07:00:33.329Z,7.20
2017-12-16T07:03:00.796Z,7.43
2017-12-16T07:05:28.254Z,5.87
2017-12-16T07:07:56.549Z,5.80
2017-12-16T07:10:24.086Z,8.17
2017-12-16T07:12:51.609Z,7.30
2017-12-16T07:15:19.809Z,7.50
2017-12-16T07:17:48.037Z,5.60
2017-12-16T07:20:15.496Z,7.00
2017-12-16T07:22:42.954Z,7.40
2017-12-16T07:25:10.377Z,5.83
2017-12-16T07:27:37.866Z,5.77
2017-12-16T07:30:05.301Z,5.80
2017-12-16T07:32:32.786Z,5.90
2017-12-16T07:35:00.384Z,5.70
2017-12-16T07:37:27.814Z,6.33
2017-12-16T07:39:55.249Z,7.07
2017-12-16T07:42:22.806Z,6.80
2017-12-16T07:44:51.005Z,6.70
2017-12-16T07:47:18.429Z,8.10
2017-12-16T07:49:46.646Z,6.43
2017-12-16T07:52:14.069Z,6.30
2017-12-16T07:54:42.266Z,6.07
2017-12-16T07:57:09.687Z,5.67
2017-12-16T07:59:37.213Z,5.63
2017-12-16T08:02:04.717Z,5.07
2017-12-16T08:04:32.171Z,5.27
2017-12-16T08:06:59.595Z,6.50
2017-12-16T08:09:27.064Z,6.10
2017-12-16T08:11:54.481Z,6.00
2017-12-16T08:14:22.698Z,5.23
2017-12-16T08:16:50.158Z,7.90
2017-12-16T08:19:17.626Z,6.40
2017-12-16T08:21:45.053Z,6.00
2017-12-16T08:24:12.541Z,6.07
2017-12-16T08:26:39.992Z,5.83
2017-12-16T08:29:07.421Z,4.70
2017-12-16T08:31:35.645Z,6.60
2017-12-16T08:34:03.077Z,6.13
2017-12-16T08:36:30.561Z,5.67
2017-12-16T08:38:57.997Z,4.07
2017-12-16T08:41:25.481Z,5.20
2017-12-16T08:43:52.984Z,3.60
2017-12-16T08:46:20.378Z,6.07
2017-12-16T08:48:48.691Z,6.33
2017-12-16T08:51:16.137Z,4.37
2017-12-16T08:53:43.564Z,5.30
2017-12-16T08:56:11.084Z,6.60
2017-12-16T08:58:38.537Z,4.70
2017-12-16T09:01:06.020Z,5.67
2017-12-16T09:03:33.608Z,5.20
2017-12-16T09:06:02.561Z,6.77
2017-12-16T09:08:29.990Z,5.47
2017-12-16T09:10:57.485Z,5.73
2017-12-16T09:13:24.915Z,4.93
2017-12-16T09:15:52.333Z,5.13
2017-12-16T09:18:20.577Z,3.73
2017-12-16T09:20:48.014Z,4.17
2017-12-16T09:23:15.509Z,3.13
2017-12-16T09:25:42.948Z,4.83
2017-12-16T09:28:11.124Z,3.50
2017-12-16T09:30:38.563Z,4.53
2017-12-16T09:33:06.750Z,4.00
2017-12-16T09:35:34.189Z,4.50
2017-12-16T09:38:02.381Z,3.80
2017-12-16T09:40:30.573Z,3.03
2017-12-16T09:42:58.001Z,4.30
2017-12-16T09:45:25.549Z,3.07
2017-12-16T09:47:52.967Z,4.03
2017-12-16T09:50:20.390Z,3.90
2017-12-16T09:52:48.573Z,2.83
2017-12-16T09:55:16.801Z,3.97
2017-12-16T09:57:44.217Z,1.93
2017-12-16T10:00:12.447Z,3.83
2017-12-16T10:02:39.897Z,3.30
2017-12-16T10:05:07.473Z,4.10
2017-12-16T10:07:34.935Z,2.60
2017-12-16T10:10:02.341Z,2.10
2017-12-16T10:12:30.541Z,2.60
2017-12-16T10:14:57.956Z,2.10
2017-12-16T10:17:25.382Z,2.30
2017-12-16T10:19:52.804Z,2.03
2017-12-16T10:22:20.993Z,3.23
2017-12-16T10:24:48.469Z,2.37
2017-12-16T10:27:15.938Z,2.33
2017-12-16T10:29:43.360Z,2.33
2017-12-16T10:32:11.581Z,1.90
2017-12-16T10:34:39.021Z,2.30
2017-12-16T10:37:06.509Z,2.40
2017-12-16T10:39:33.962Z,2.00
2017-12-16T10:42:01.389Z,2.00
2017-12-16T10:44:29.578Z,1.73
2017-12-16T10:46:57.001Z,1.70
2017-12-16T10:49:24.442Z,1.60
2017-12-16T10:51:51.856Z,2.53
2017-12-16T10:54:19.345Z,2.07
2017-12-16T10:56:46.774Z,1.60
2017-12-16T10:59:14.985Z,1.43
2017-12-16T11:01:42.422Z,1.83
2017-12-16T11:04:09.933Z,3.10
2017-12-16T11:06:37.354Z,1.20
2017-12-16T11:09:04.794Z,1.90
2017-12-16T11:11:32.982Z,1.23
2017-12-16T11:14:00.405Z,1.30
2017-12-16T11:16:28.695Z,2.27
2017-12-16T11:18:56.111Z,2.00
2017-12-16T11:21:23.537Z,1.10
2017-12-16T11:23:51.721Z,1.40
2017-12-16T11:26:19.201Z,1.20
2017-12-16T11:28:46.669Z,1.37
2017-12-16T11:31:14.133Z,1.20
2017-12-16T11:33:41.558Z,0.50
2017-12-16T11:36:09.765Z,1.40
2017-12-16T11:38:37.248Z,1.20
2017-12-16T11:41:04.695Z,1.30
2017-12-16T11:43:32.161Z,1.23
2017-12-16T11:45:59.617Z,1.03
2017-12-16T11:48:27.073Z,1.27
2017-12-16T11:50:54.544Z,1.10
2017-12-16T11:53:22.002Z,0.90
2017-12-16T11:55:49.461Z,0.60
2017-12-16T11:58:17.013Z,0.73
2017-12-16T12:00:45.194Z,1.33
2017-12-16T12:03:12.612Z,0.63
2017-12-16T12:05:40.025Z,0.70
2017-12-16T12:08:07.457Z,0.40
2017-12-16T12:10:35.686Z,0.70
2017-12-16T12:13:03.122Z,1.13
2017-12-16T12:15:30.586Z,0.70
2017-12-16T12:17:58.018Z,1.60
2017-12-16T12:20:26.230Z,1.70
2017-12-16T12:22:53.688Z,1.63
2017-12-16T12:25:21.166Z,1.03
2017-12-16T12:27:48.580Z,1.03
2017-12-16T12:30:16.075Z,0.57
2017-12-16T12:32:43.531Z,0.70
2017-12-16T12:35:10.992Z,0.93
2017-12-16T12:37:38.457Z,1.37
2017-12-16T12:40:05.879Z,0.47
2017-12-16T12:42:34.093Z,0.80
2017-12-16T12:45:01.513Z,0.70
2017-12-16T12:47:29.732Z,0.60
2017-12-16T12:49:57.193Z,1.17
2017-12-16T12:52:24.620Z,0.90
2017-12-16T12:54:52.922Z,0.70
2017-12-16T12:57:20.329Z,0.60
2017-12-16T12:59:47.761Z,0.83
2017-12-16T13:02:15.219Z,0.50
2017-12-16T13:04:42.673Z,0.93
2017-12-16T13:07:10.166Z,1.30
2017-12-16T13:09:37.603Z,0.60
2017-12-16T13:12:05.025Z,1.17
2017-12-16T13:14:33.213Z,1.10
2017-12-16T13:17:00.645Z,1.53
2017-12-16T13:19:28.166Z,0.90
2017-12-16T13:21:55.632Z,0.90
2017-12-16T13:24:23.041Z,0.40
2017-12-16T13:26:51.266Z,0.40
2017-12-16T13:29:18.754Z,0.97
2017-12-16T13:31:46.186Z,0.90
2017-12-16T13:34:13.641Z,0.83
2017-12-16T13:36:41.106Z,0.70
2017-12-16T13:39:08.562Z,0.70
2017-12-16T13:41:36.028Z,0.60
2017-12-16T13:44:03.465Z,0.60
2017-12-16T13:46:30.882Z,0.50
2017-12-16T13:48:58.309Z,0.90
2017-12-16T13:51:25.798Z,0.70
2017-12-16T13:53:53.221Z,0.80
2017-12-16T13:56:20.713Z,0.80
2017-12-16T13:58:48.143Z,0.97
2017-12-16T14:01:15.558Z,0.70
2017-12-16T14:03:42.982Z,0.40
2017-12-16T14:06:10.404Z,0.50
2017-12-16T14:08:38.613Z,0.60
2017-12-16T14:11:06.086Z,1.20
2017-12-16T14:13:33.516Z,0.40
2017-12-16T14:16:01.014Z,0.83
2017-12-16T14:18:28.466Z,0.70
2017-12-16T14:20:55.918Z,0.93
2017-12-16T14:23:23.398Z,1.00
2017-12-16T14:25:50.802Z,0.83
2017-12-16T14:28:18.990Z,1.27
2017-12-16T14:30:46.405Z,0.70
2017-12-16T14:33:13.833Z,1.07
2017-12-16T14:35:41.252Z,0.60
2017-12-16T14:38:08.676Z,1.03
2017-12-16T14:40:36.093Z,0.43
2017-12-16T14:43:03.581Z,1.10
2017-12-16T14:45:31.057Z,0.40
2017-12-16T14:47:58.472Z,0.90
2017-12-16T14:50:26.686Z,1.37
2017-12-16T14:52:54.136Z,1.07
2017-12-16T14:55:22.298Z,0.90
2017-12-16T14:57:49.739Z,0.43
2017-12-16T15:00:17.966Z,0.80
2017-12-16T15:02:45.427Z,0.73
2017-12-16T15:05:12.895Z,0.60
2017-12-16T15:07:40.309Z,1.00
2017-12-16T15:10:08.510Z,0.40
2017-12-16T15:12:35.941Z,1.10
2017-12-16T15:15:04.121Z,1.63
2017-12-16T15:17:32.314Z,0.70
2017-12-16T15:19:59.812Z,0.60
2017-12-16T15:22:27.233Z,0.50
2017-12-16T15:24:54.733Z,0.83
2017-12-16T15:27:22.163Z,0.73
2017-12-16T15:29:49.577Z,1.50
2017-12-16T15:32:17.049Z,1.80
2017-12-16T15:34:44.465Z,0.63
2017-12-16T15:37:11.949Z,0.50
2017-12-16T15:39:39.482Z,0.70
2017-12-16T15:42:07.686Z,1.03
2017-12-16T15:44:35.142Z,1.40
2017-12-16T15:47:02.550Z,0.83
2017-12-16T15:49:30.746Z,0.67
2017-12-16T15:51:58.164Z,0.80
2017-12-16T15:54:25.710Z,0.53
2017-12-16T15:56:53.125Z,0.83
2017-12-16T15:59:20.564Z,0.67
2017-12-16T16:01:48.077Z,1.37
2017-12-16T16:04:15.639Z,0.80
2017-12-16T16:06:43.113Z,0.80
2017-12-16T16:09:10.538Z,0.87
2017-12-16T16:11:38.069Z,0.93
2017-12-16T16:14:05.514Z,0.60
2017-12-16T16:16:32.927Z,0.93
2017-12-16T16:19:00.413Z,0.80
2017-12-16T16:21:27.840Z,0.50
2017-12-16T16:23:56.141Z,0.83
2017-12-16T16:26:23.553Z,0.50
2017-12-16T16:28:51.079Z,1.37
2017-12-16T16:31:18.549Z,1.20
2017-12-16T16:33:45.998Z,0.70
2017-12-16T16:36:13.420Z,0.70
2017-12-16T16:38:41.637Z,0.87
2017-12-16T16:41:13.862Z,1.10
2017-12-16T16:43:41.377Z,0.90
2017-12-16T16:46:08.795Z,0.70
2017-12-16T16:48:36.991Z,0.57
2017-12-16T16:51:04.487Z,0.90
2017-12-16T16:53:31.901Z,0.70
2017-12-16T16:55:59.446Z,2.30
2017-12-16T16:58:27.666Z,1.43
2017-12-16T17:00:55.141Z,0.70
2017-12-16T17:03:22.567Z,1.57
2017-12-16T17:05:49.986Z,0.90
2017-12-16T17:08:17.522Z,0.80
2017-12-16T17:10:44.978Z,0.70
2017-12-16T17:13:12.401Z,0.70
2017-12-16T17:15:40.630Z,0.70
2017-12-16T17:18:08.078Z,0.70
2017-12-16T17:20:35.505Z,1.43
2017-12-16T17:23:03.726Z,1.00
2017-12-16T17:25:31.270Z,1.53
2017-12-16T17:27:58.740Z,0.60
2017-12-16T17:30:26.169Z,0.93
2017-12-16T17:32:54.353Z,0.93
2017-12-16T17:35:21.779Z,1.10
2017-12-16T17:37:49.301Z,1.03
2017-12-16T17:40:16.753Z,1.30
2017-12-16T17:42:44.950Z,1.23
2017-12-16T17:45:12.377Z,0.83
2017-12-16T17:47:39.794Z,0.70
2017-12-16T17:50:07.224Z,1.33
2017-12-16T17:52:34.638Z,2.27
2017-12-16T17:55:02.917Z,0.97
2017-12-16T17:57:31.235Z,2.57
2017-12-16T17:59:58.646Z,1.80
2017-12-16T18:02:26.090Z,1.93
2017-12-16T18:04:53.529Z,1.07
2017-12-16T18:07:20.934Z,1.70
2017-12-16T18:09:48.366Z,1.30
2017-12-16T18:12:15.784Z,1.23
2017-12-16T18:14:43.209Z,1.00
2017-12-16T18:17:10.625Z,2.03
2017-12-16T18:19:38.058Z,1.47
2017-12-16T18:22:06.269Z,1.33
2017-12-16T18:24:33.729Z,1.43
2017-12-16T18:27:01.149Z,2.10
2017-12-16T18:29:29.370Z,1.43
2017-12-16T18:31:56.796Z,1.40
2017-12-16T18:34:24.984Z,1.00
2017-12-16T18:36:52.466Z,1.10
2017-12-16T18:39:20.021Z,1.30
2017-12-16T18:41:48.189Z,2.23
2017-12-16T18:44:15.614Z,1.83
2017-12-16T18:46:43.130Z,1.27
2017-12-16T18:49:10.584Z,0.80
2017-12-16T18:51:38.745Z,1.70
2017-12-16T18:54:06.233Z,1.00
2017-12-16T18:56:33.707Z,1.53
2017-12-16T18:59:01.182Z,1.27
2017-12-16T19:01:28.851Z,1.00
2017-12-16T19:03:56.333Z,1.77
2017-12-16T19:06:24.522Z,1.40
2017-12-16T19:08:52.716Z,2.27
2017-12-16T19:11:20.294Z,1.20
2017-12-16T19:13:47.693Z,1.03
2017-12-16T19:16:15.249Z,2.73
2017-12-16T19:18:42.684Z,1.30
2017-12-16T19:21:10.098Z,1.77
2017-12-16T19:23:37.536Z,1.00
2017-12-16T19:26:05.214Z,1.73
2017-12-16T19:28:32.737Z,2.03
2017-12-16T19:31:00.209Z,0.70
2017-12-16T19:33:27.666Z,1.77
2017-12-16T19:35:55.111Z,1.37
2017-12-16T19:38:22.510Z,1.60
2017-12-16T19:40:49.934Z,1.70
2017-12-16T19:43:17.393Z,2.07
2017-12-16T19:45:44.958Z,1.53
2017-12-16T19:48:13.160Z,1.63
2017-12-16T19:50:40.602Z,1.40
2017-12-16T19:53:08.031Z,1.17
2017-12-16T19:55:36.231Z,1.67
2017-12-16T19:58:03.658Z,1.53
2017-12-16T20:00:31.978Z,1.30
2017-12-16T20:02:59.498Z,1.17
2017-12-16T20:05:27.018Z,2.30
2017-12-16T20:07:54.516Z,1.77
2017-12-16T20:10:21.936Z,1.93
2017-12-16T20:12:49.353Z,1.63
2017-12-16T20:15:17.558Z,1.77
2017-12-16T20:17:45.049Z,1.00
2017-12-16T20:20:12.473Z,2.10
2017-12-16T20:22:39.902Z,2.80
2017-12-16T20:25:07.423Z,1.80
2017-12-16T20:27:34.869Z,1.37
2017-12-16T20:30:03.042Z,1.50
2017-12-16T20:32:30.544Z,1.43
2017-12-16T20:34:57.972Z,1.60
2017-12-16T20:37:25.441Z,1.73
2017-12-16T20:39:52.901Z,1.20
2017-12-16T20:42:20.317Z,2.10
2017-12-16T20:44:48.635Z,1.90
2017-12-16T20:47:16.110Z,1.80
2017-12-16T20:49:43.573Z,1.80
2017-12-16T20:52:10.993Z,1.10
2017-12-16T20:54:39.184Z,2.27
2017-12-16T20:57:06.673Z,2.33
2017-12-16T20:59:34.129Z,2.00
2017-12-16T21:02:01.566Z,2.53
2017-12-16T21:04:28.982Z,1.63
2017-12-16T21:06:56.410Z,1.90
2017-12-16T21:09:23.886Z,2.33
2017-12-16T21:11:51.313Z,2.43
2017-12-16T21:14:18.797Z,2.30
2017-12-16T21:16:46.349Z,1.50
2017-12-16T21:19:13.765Z,1.20
2017-12-16T21:21:41.968Z,1.90
2017-12-16T21:24:10.148Z,1.90
2017-12-16T21:26:37.729Z,2.10
2017-12-16T21:29:05.890Z,1.80
2017-12-16T21:31:33.409Z,1.67
2017-12-16T21:34:00.947Z,2.60
2017-12-16T21:36:28.394Z,2.70
2017-12-16T21:38:55.865Z,3.33
2017-12-16T21:41:23.344Z,2.03
2017-12-16T21:43:50.793Z,2.63
2017-12-16T21:46:18.248Z,2.50
2017-12-16T21:48:45.669Z,3.10
2017-12-16T21:51:13.897Z,3.23
2017-12-16T21:53:41.349Z,1.80
2017-12-16T21:56:08.807Z,2.60
2017-12-16T21:58:36.221Z,1.50
2017-12-16T22:01:04.445Z,3.97
2017-12-16T22:03:32.108Z,3.87
2017-12-16T22:05:59.577Z,3.40
2017-12-16T22:08:27.019Z,2.70
2017-12-16T22:10:54.443Z,3.20
2017-12-16T22:13:21.966Z,2.20
2017-12-16T22:15:49.455Z,3.17
2017-12-16T22:18:16.917Z,2.70
2017-12-16T22:20:44.445Z,2.93
2017-12-16T22:23:11.862Z,2.50
2017-12-16T22:25:40.050Z,3.30
2017-12-16T22:28:08.233Z,3.10
2017-12-16T22:30:35.738Z,2.40
2017-12-16T22:33:03.153Z,3.37
2017-12-16T22:35:31.366Z,3.50
2017-12-16T22:37:58.801Z,2.70
2017-12-16T22:40:26.293Z,3.00
2017-12-16T22:42:53.749Z,2.20
2017-12-16T22:45:21.215Z,3.27
2017-12-16T22:47:48.677Z,3.03
2017-12-16T22:50:16.133Z,3.50
2017-12-16T22:52:43.630Z,3.40
2017-12-16T22:55:11.021Z,2.40
2017-12-16T22:57:39.218Z,2.97
2017-12-16T23:00:06.693Z,2.50
2017-12-16T23:02:34.122Z,3.17
2017-12-16T23:05:02.305Z,3.07
2017-12-16T23:07:29.793Z,2.70
2017-12-16T23:09:57.211Z,3.40
2017-12-16T23:12:25.439Z,2.30
2017-12-16T23:14:52.859Z,2.60
2017-12-16T23:17:21.062Z,3.00
2017-12-16T23:19:48.465Z,3.30
2017-12-16T23:22:15.994Z,2.63
2017-12-16T23:24:43.448Z,1.90
2017-12-16T23:27:10.864Z,2.73
2017-12-16T23:29:38.277Z,2.17
2017-12-16T23:32:05.701Z,3.53
2017-12-16T23:34:33.894Z,2.20
2017-12-16T23:37:01.321Z,2.87
2017-12-16T23:39:28.737Z,3.47
2017-12-16T23:41:56.196Z,2.93
2017-12-16T23:44:23.668Z,2.67
2017-12-16T23:46:51.119Z,3.50
2017-12-16T23:49:18.533Z,3.20
2017-12-16T23:51:46.726Z,2.77
2017-12-16T23:54:14.965Z,3.43
2017-12-16T23:56:42.429Z,3.23
2017-12-16T23:59:11.366Z,2.80
